sensor_id;sensor_type;location;lat;lon;timestamp;temperature;humidity
13326;DHT22;6732;51.044;3.746;2022-08-01T00:00:30;22.10;99.90
13326;DHT22;6732;51.044;3.746;2022-08-01T00:02:56;22.10;99.90
13326;DHT22;6732;51.044;3.746;2022-08-01T00:05:22;22.00;99.90
13326;DHT22;6732;51.044;3.746;2022-08-01T00:07:48;22.00;99.90
13326;DHT22;6732;51.044;3.746;2022-08-01T00:10:15;22.00;99.90
13326;DHT22;6732;51.044;3.746;2022-08-01T00:12:43;22.00;99.90
13326;DHT22;6732;51.044;3.746;2022-08-01T00:15:10;22.00;99.90
13326;DHT22;6732;51.044;3.746;2022-08-01T00:17:37;22.00;99.90
13326;DHT22;6732;51.044;3.746;2022-08-01T00:20:05;22.00;99.90
13326;DHT22;6732;51.044;3.746;2022-08-01T00:22:33;22.00;99.90
13326;DHT22;6732;51.044;3.746;2022-08-01T00:25:00;22.00;99.90
13326;DHT22;6732;51.044;3.746;2022-08-01T00:27:35;22.00;99.90
13326;DHT22;6732;51.044;3.746;2022-08-01T00:30:01;22.00;99.90
13326;DHT22;6732;51.044;3.746;2022-08-01T00:32:30;22.00;99.90
13326;DHT22;6732;51.044;3.746;2022-08-01T00:34:56;22.00;99.90
13326;DHT22;6732;51.044;3.746;2022-08-01T00:37:22;21.90;99.90
13326;DHT22;6732;51.044;3.746;2022-08-01T00:39:48;21.90;99.90
13326;DHT22;6732;51.044;3.746;2022-08-01T00:42:14;21.90;99.90
13326;DHT22;6732;51.044;3.746;2022-08-01T00:44:40;21.90;99.90
13326;DHT22;6732;51.044;3.746;2022-08-01T00:47:06;21.90;99.90
13326;DHT22;6732;51.044;3.746;2022-08-01T00:49:33;21.90;99.90
13326;DHT22;6732;51.044;3.746;2022-08-01T00:51:59;21.90;99.90
13326;DHT22;6732;51.044;3.746;2022-08-01T00:54:26;21.90;99.90
13326;DHT22;6732;51.044;3.746;2022-08-01T00:56:53;21.90;99.90
13326;DHT22;6732;51.044;3.746;2022-08-01T00:59:22;21.90;99.90
13326;DHT22;6732;51.044;3.746;2022-08-01T01:01:49;21.90;99.90
13326;DHT22;6732;51.044;3.746;2022-08-01T01:04:16;21.90;99.90
13326;DHT22;6732;51.044;3.746;2022-08-01T01:07:06;21.90;99.90
13326;DHT22;6732;51.044;3.746;2022-08-01T01:14:44;21.80;99.90
13326;DHT22;6732;51.044;3.746;2022-08-01T01:17:19;21.90;99.90
13326;DHT22;6732;51.044;3.746;2022-08-01T01:19:48;21.90;99.90
13326;DHT22;6732;51.044;3.746;2022-08-01T01:22:31;21.80;99.90
13326;DHT22;6732;51.044;3.746;2022-08-01T01:30:53;21.80;99.90
13326;DHT22;6732;51.044;3.746;2022-08-01T01:33:21;21.80;99.90
13326;DHT22;6732;51.044;3.746;2022-08-01T01:35:53;21.80;99.90
13326;DHT22;6732;51.044;3.746;2022-08-01T01:38:26;21.80;99.90
13326;DHT22;6732;51.044;3.746;2022-08-01T01:40:55;21.80;99.90
13326;DHT22;6732;51.044;3.746;2022-08-01T01:43:22;21.80;99.90
13326;DHT22;6732;51.044;3.746;2022-08-01T01:45:49;21.80;99.90
13326;DHT22;6732;51.044;3.746;2022-08-01T01:48:18;21.80;99.90
13326;DHT22;6732;51.044;3.746;2022-08-01T01:50:46;21.80;99.90
13326;DHT22;6732;51.044;3.746;2022-08-01T01:53:15;21.80;99.90
13326;DHT22;6732;51.044;3.746;2022-08-01T01:55:43;21.70;99.90
13326;DHT22;6732;51.044;3.746;2022-08-01T01:58:13;21.80;99.90
13326;DHT22;6732;51.044;3.746;2022-08-01T02:00:41;21.80;99.90
13326;DHT22;6732;51.044;3.746;2022-08-01T02:03:09;21.70;99.90
13326;DHT22;6732;51.044;3.746;2022-08-01T02:05:38;21.70;99.90
13326;DHT22;6732;51.044;3.746;2022-08-01T02:08:06;21.70;99.90
13326;DHT22;6732;51.044;3.746;2022-08-01T02:10:34;21.70;99.90
13326;DHT22;6732;51.044;3.746;2022-08-01T02:13:03;21.70;99.90
13326;DHT22;6732;51.044;3.746;2022-08-01T02:15:31;21.70;99.90
13326;DHT22;6732;51.044;3.746;2022-08-01T02:17:58;21.70;99.90
13326;DHT22;6732;51.044;3.746;2022-08-01T02:20:29;21.60;99.90
13326;DHT22;6732;51.044;3.746;2022-08-01T02:23:04;21.60;99.90
13326;DHT22;6732;51.044;3.746;2022-08-01T02:25:38;21.60;99.90
13326;DHT22;6732;51.044;3.746;2022-08-01T02:28:10;21.60;99.90
13326;DHT22;6732;51.044;3.746;2022-08-01T02:30:42;21.60;99.90
13326;DHT22;6732;51.044;3.746;2022-08-01T02:33:17;21.60;99.90
13326;DHT22;6732;51.044;3.746;2022-08-01T02:35:48;21.60;99.90
13326;DHT22;6732;51.044;3.746;2022-08-01T02:38:17;21.60;99.90
13326;DHT22;6732;51.044;3.746;2022-08-01T02:40:46;21.60;99.90
13326;DHT22;6732;51.044;3.746;2022-08-01T02:43:15;21.50;99.90
13326;DHT22;6732;51.044;3.746;2022-08-01T02:45:45;21.50;99.90
13326;DHT22;6732;51.044;3.746;2022-08-01T02:48:14;21.50;99.90
13326;DHT22;6732;51.044;3.746;2022-08-01T02:50:43;21.50;99.90
13326;DHT22;6732;51.044;3.746;2022-08-01T02:53:11;21.50;99.90
13326;DHT22;6732;51.044;3.746;2022-08-01T02:55:39;21.50;99.90
13326;DHT22;6732;51.044;3.746;2022-08-01T02:58:07;21.50;99.90
13326;DHT22;6732;51.044;3.746;2022-08-01T03:00:35;21.50;99.90
13326;DHT22;6732;51.044;3.746;2022-08-01T03:03:03;21.50;99.90
13326;DHT22;6732;51.044;3.746;2022-08-01T03:05:31;21.50;99.90
13326;DHT22;6732;51.044;3.746;2022-08-01T03:07:59;21.50;99.90
13326;DHT22;6732;51.044;3.746;2022-08-01T03:10:29;21.50;99.90
13326;DHT22;6732;51.044;3.746;2022-08-01T03:12:58;21.50;99.90
13326;DHT22;6732;51.044;3.746;2022-08-01T03:15:28;21.50;99.90
13326;DHT22;6732;51.044;3.746;2022-08-01T03:17:56;21.50;99.90
13326;DHT22;6732;51.044;3.746;2022-08-01T03:20:25;21.50;99.90
13326;DHT22;6732;51.044;3.746;2022-08-01T03:22:53;21.50;99.90
13326;DHT22;6732;51.044;3.746;2022-08-01T03:25:20;21.40;99.90
13326;DHT22;6732;51.044;3.746;2022-08-01T03:27:54;21.40;99.90
13326;DHT22;6732;51.044;3.746;2022-08-01T03:30:23;21.40;99.90
13326;DHT22;6732;51.044;3.746;2022-08-01T03:32:50;21.40;99.90
13326;DHT22;6732;51.044;3.746;2022-08-01T03:35:17;21.40;99.90
13326;DHT22;6732;51.044;3.746;2022-08-01T03:37:46;21.40;99.90
13326;DHT22;6732;51.044;3.746;2022-08-01T03:42:59;21.40;99.90
13326;DHT22;6732;51.044;3.746;2022-08-01T03:45:34;21.40;99.90
13326;DHT22;6732;51.044;3.746;2022-08-01T03:48:05;21.40;99.90
13326;DHT22;6732;51.044;3.746;2022-08-01T03:50:37;21.40;99.90
13326;DHT22;6732;51.044;3.746;2022-08-01T03:53:06;21.40;99.90
13326;DHT22;6732;51.044;3.746;2022-08-01T03:55:33;21.40;99.90
13326;DHT22;6732;51.044;3.746;2022-08-01T03:58:00;21.40;99.90
13326;DHT22;6732;51.044;3.746;2022-08-01T04:00:27;21.40;99.90
13326;DHT22;6732;51.044;3.746;2022-08-01T04:02:53;21.40;99.90
13326;DHT22;6732;51.044;3.746;2022-08-01T04:05:20;21.40;99.90
13326;DHT22;6732;51.044;3.746;2022-08-01T04:07:50;21.40;99.90
13326;DHT22;6732;51.044;3.746;2022-08-01T04:10:25;21.40;99.90
13326;DHT22;6732;51.044;3.746;2022-08-01T04:12:51;21.40;99.90
13326;DHT22;6732;51.044;3.746;2022-08-01T04:15:17;21.30;99.90
13326;DHT22;6732;51.044;3.746;2022-08-01T04:17:43;21.30;99.90
13326;DHT22;6732;51.044;3.746;2022-08-01T04:20:10;21.30;99.90
13326;DHT22;6732;51.044;3.746;2022-08-01T04:22:37;21.30;99.90
13326;DHT22;6732;51.044;3.746;2022-08-01T04:25:07;21.30;99.90
13326;DHT22;6732;51.044;3.746;2022-08-01T04:27:38;21.30;99.90
13326;DHT22;6732;51.044;3.746;2022-08-01T04:30:06;21.30;99.90
13326;DHT22;6732;51.044;3.746;2022-08-01T04:32:35;21.30;99.90
13326;DHT22;6732;51.044;3.746;2022-08-01T04:35:06;21.30;99.90
13326;DHT22;6732;51.044;3.746;2022-08-01T04:37:34;21.30;99.90
13326;DHT22;6732;51.044;3.746;2022-08-01T04:40:06;21.30;99.90
13326;DHT22;6732;51.044;3.746;2022-08-01T04:42:34;21.30;99.90
13326;DHT22;6732;51.044;3.746;2022-08-01T04:45:00;21.30;99.90
13326;DHT22;6732;51.044;3.746;2022-08-01T04:47:29;21.30;99.90
13326;DHT22;6732;51.044;3.746;2022-08-01T04:49:56;21.30;99.90
13326;DHT22;6732;51.044;3.746;2022-08-01T04:52:22;21.30;99.90
13326;DHT22;6732;51.044;3.746;2022-08-01T04:54:48;21.30;99.90
13326;DHT22;6732;51.044;3.746;2022-08-01T04:57:14;21.20;99.90
13326;DHT22;6732;51.044;3.746;2022-08-01T04:59:43;21.30;99.90
13326;DHT22;6732;51.044;3.746;2022-08-01T05:02:11;21.30;99.90
13326;DHT22;6732;51.044;3.746;2022-08-01T05:04:38;21.30;99.90
13326;DHT22;6732;51.044;3.746;2022-08-01T05:07:06;21.30;99.90
13326;DHT22;6732;51.044;3.746;2022-08-01T05:09:33;21.30;99.90
13326;DHT22;6732;51.044;3.746;2022-08-01T05:12:00;21.30;99.90
13326;DHT22;6732;51.044;3.746;2022-08-01T05:14:28;21.30;99.90
13326;DHT22;6732;51.044;3.746;2022-08-01T05:16:54;21.30;99.90
13326;DHT22;6732;51.044;3.746;2022-08-01T05:19:20;21.20;99.90
13326;DHT22;6732;51.044;3.746;2022-08-01T05:21:47;21.20;99.90
13326;DHT22;6732;51.044;3.746;2022-08-01T05:24:13;21.20;99.90
13326;DHT22;6732;51.044;3.746;2022-08-01T05:26:39;21.20;99.90
13326;DHT22;6732;51.044;3.746;2022-08-01T05:29:05;21.20;99.90
13326;DHT22;6732;51.044;3.746;2022-08-01T05:31:31;21.20;99.90
13326;DHT22;6732;51.044;3.746;2022-08-01T05:34:01;21.20;99.90
13326;DHT22;6732;51.044;3.746;2022-08-01T05:36:27;21.20;99.90
13326;DHT22;6732;51.044;3.746;2022-08-01T05:38:53;21.20;99.90
13326;DHT22;6732;51.044;3.746;2022-08-01T05:41:19;21.20;99.90
13326;DHT22;6732;51.044;3.746;2022-08-01T05:43:45;21.20;99.90
13326;DHT22;6732;51.044;3.746;2022-08-01T05:46:11;21.20;99.90
13326;DHT22;6732;51.044;3.746;2022-08-01T05:48:37;21.20;99.90
13326;DHT22;6732;51.044;3.746;2022-08-01T05:51:03;21.30;99.90
13326;DHT22;6732;51.044;3.746;2022-08-01T05:53:29;21.30;99.90
13326;DHT22;6732;51.044;3.746;2022-08-01T05:55:55;21.30;99.90
13326;DHT22;6732;51.044;3.746;2022-08-01T05:58:21;21.30;99.90
13326;DHT22;6732;51.044;3.746;2022-08-01T06:00:47;21.30;99.90
13326;DHT22;6732;51.044;3.746;2022-08-01T06:03:13;21.30;99.90
13326;DHT22;6732;51.044;3.746;2022-08-01T06:05:40;21.30;99.90
13326;DHT22;6732;51.044;3.746;2022-08-01T06:08:06;21.20;99.90
13326;DHT22;6732;51.044;3.746;2022-08-01T06:10:32;21.20;99.90
13326;DHT22;6732;51.044;3.746;2022-08-01T06:12:58;21.20;99.90
13326;DHT22;6732;51.044;3.746;2022-08-01T06:15:25;21.20;99.90
13326;DHT22;6732;51.044;3.746;2022-08-01T06:17:51;21.20;99.90
13326;DHT22;6732;51.044;3.746;2022-08-01T06:20:17;21.30;99.90
13326;DHT22;6732;51.044;3.746;2022-08-01T06:22:43;21.30;99.90
13326;DHT22;6732;51.044;3.746;2022-08-01T06:25:09;21.30;99.90
13326;DHT22;6732;51.044;3.746;2022-08-01T06:27:35;21.30;99.90
13326;DHT22;6732;51.044;3.746;2022-08-01T06:30:01;21.30;99.90
13326;DHT22;6732;51.044;3.746;2022-08-01T06:32:28;21.30;99.90
13326;DHT22;6732;51.044;3.746;2022-08-01T06:34:55;21.30;99.90
13326;DHT22;6732;51.044;3.746;2022-08-01T06:37:21;21.30;99.90
13326;DHT22;6732;51.044;3.746;2022-08-01T06:39:47;21.30;99.90
13326;DHT22;6732;51.044;3.746;2022-08-01T06:42:13;21.30;99.90
13326;DHT22;6732;51.044;3.746;2022-08-01T06:44:40;21.40;99.90
13326;DHT22;6732;51.044;3.746;2022-08-01T06:47:06;21.40;99.90
13326;DHT22;6732;51.044;3.746;2022-08-01T06:49:32;21.40;99.90
13326;DHT22;6732;51.044;3.746;2022-08-01T06:51:58;21.40;99.90
13326;DHT22;6732;51.044;3.746;2022-08-01T06:54:24;21.40;99.90
13326;DHT22;6732;51.044;3.746;2022-08-01T06:56:50;21.40;99.90
13326;DHT22;6732;51.044;3.746;2022-08-01T06:59:16;21.40;99.90
13326;DHT22;6732;51.044;3.746;2022-08-01T07:01:42;21.40;99.90
13326;DHT22;6732;51.044;3.746;2022-08-01T07:04:08;21.40;99.90
13326;DHT22;6732;51.044;3.746;2022-08-01T07:06:34;21.40;99.90
13326;DHT22;6732;51.044;3.746;2022-08-01T07:08:59;21.40;99.90
13326;DHT22;6732;51.044;3.746;2022-08-01T07:11:27;21.40;99.90
13326;DHT22;6732;51.044;3.746;2022-08-01T07:13:53;21.50;99.90
13326;DHT22;6732;51.044;3.746;2022-08-01T07:16:19;21.50;99.90
13326;DHT22;6732;51.044;3.746;2022-08-01T07:18:45;21.50;99.90
13326;DHT22;6732;51.044;3.746;2022-08-01T07:21:11;21.50;99.90
13326;DHT22;6732;51.044;3.746;2022-08-01T07:23:37;21.50;99.90
13326;DHT22;6732;51.044;3.746;2022-08-01T07:26:03;21.60;99.90
13326;DHT22;6732;51.044;3.746;2022-08-01T07:28:30;21.60;99.90
13326;DHT22;6732;51.044;3.746;2022-08-01T07:30:56;21.60;99.90
13326;DHT22;6732;51.044;3.746;2022-08-01T07:33:22;21.60;99.90
13326;DHT22;6732;51.044;3.746;2022-08-01T07:35:48;21.70;99.90
13326;DHT22;6732;51.044;3.746;2022-08-01T07:38:14;21.70;99.90
13326;DHT22;6732;51.044;3.746;2022-08-01T07:40:45;21.70;99.90
13326;DHT22;6732;51.044;3.746;2022-08-01T07:43:11;21.70;99.90
13326;DHT22;6732;51.044;3.746;2022-08-01T07:45:37;21.70;99.90
13326;DHT22;6732;51.044;3.746;2022-08-01T07:48:04;21.70;99.90
13326;DHT22;6732;51.044;3.746;2022-08-01T07:50:31;21.70;99.90
13326;DHT22;6732;51.044;3.746;2022-08-01T07:52:57;21.80;99.90
13326;DHT22;6732;51.044;3.746;2022-08-01T07:55:23;21.80;99.90
13326;DHT22;6732;51.044;3.746;2022-08-01T07:57:49;21.80;99.90
13326;DHT22;6732;51.044;3.746;2022-08-01T08:00:15;21.80;99.90
13326;DHT22;6732;51.044;3.746;2022-08-01T08:02:41;21.80;99.90
13326;DHT22;6732;51.044;3.746;2022-08-01T08:05:08;21.90;99.90
13326;DHT22;6732;51.044;3.746;2022-08-01T08:07:34;21.90;99.90
13326;DHT22;6732;51.044;3.746;2022-08-01T08:10:00;21.90;99.90
13326;DHT22;6732;51.044;3.746;2022-08-01T08:12:26;22.00;99.90
13326;DHT22;6732;51.044;3.746;2022-08-01T08:14:53;22.00;99.90
13326;DHT22;6732;51.044;3.746;2022-08-01T08:17:19;22.00;99.90
13326;DHT22;6732;51.044;3.746;2022-08-01T08:19:45;22.10;99.90
13326;DHT22;6732;51.044;3.746;2022-08-01T08:22:11;22.10;99.90
13326;DHT22;6732;51.044;3.746;2022-08-01T08:24:37;22.20;99.90
13326;DHT22;6732;51.044;3.746;2022-08-01T08:27:03;22.20;99.90
13326;DHT22;6732;51.044;3.746;2022-08-01T08:29:30;22.20;99.90
13326;DHT22;6732;51.044;3.746;2022-08-01T08:31:59;22.30;99.90
13326;DHT22;6732;51.044;3.746;2022-08-01T08:34:26;22.30;99.80
13326;DHT22;6732;51.044;3.746;2022-08-01T08:36:53;22.30;99.90
13326;DHT22;6732;51.044;3.746;2022-08-01T08:39:20;22.40;99.90
13326;DHT22;6732;51.044;3.746;2022-08-01T08:41:46;22.40;99.90
13326;DHT22;6732;51.044;3.746;2022-08-01T08:44:13;22.40;99.40
13326;DHT22;6732;51.044;3.746;2022-08-01T08:46:46;22.50;99.10
13326;DHT22;6732;51.044;3.746;2022-08-01T08:49:17;22.50;99.10
13326;DHT22;6732;51.044;3.746;2022-08-01T08:51:44;22.50;99.20
13326;DHT22;6732;51.044;3.746;2022-08-01T08:54:12;22.50;98.90
13326;DHT22;6732;51.044;3.746;2022-08-01T08:56:39;22.60;99.10
13326;DHT22;6732;51.044;3.746;2022-08-01T08:59:06;22.60;98.90
13326;DHT22;6732;51.044;3.746;2022-08-01T09:01:32;22.60;99.20
13326;DHT22;6732;51.044;3.746;2022-08-01T09:03:59;22.60;99.30
13326;DHT22;6732;51.044;3.746;2022-08-01T09:06:35;22.70;99.30
13326;DHT22;6732;51.044;3.746;2022-08-01T09:09:01;22.70;99.10
13326;DHT22;6732;51.044;3.746;2022-08-01T09:11:27;22.80;99.10
13326;DHT22;6732;51.044;3.746;2022-08-01T09:14:03;22.80;99.00
13326;DHT22;6732;51.044;3.746;2022-08-01T09:16:30;22.80;99.10
13326;DHT22;6732;51.044;3.746;2022-08-01T09:19:13;22.90;99.10
13326;DHT22;6732;51.044;3.746;2022-08-01T09:21:40;22.90;98.90
13326;DHT22;6732;51.044;3.746;2022-08-01T09:24:20;22.90;98.50
13326;DHT22;6732;51.044;3.746;2022-08-01T09:26:46;22.90;98.20
13326;DHT22;6732;51.044;3.746;2022-08-01T09:29:19;23.00;98.30
13326;DHT22;6732;51.044;3.746;2022-08-01T09:31:46;23.00;98.00
13326;DHT22;6732;51.044;3.746;2022-08-01T09:34:12;23.00;98.20
13326;DHT22;6732;51.044;3.746;2022-08-01T09:39:13;23.00;98.30
13326;DHT22;6732;51.044;3.746;2022-08-01T09:41:40;23.10;98.00
13326;DHT22;6732;51.044;3.746;2022-08-01T09:44:06;23.10;97.90
13326;DHT22;6732;51.044;3.746;2022-08-01T09:46:32;23.10;97.90
13326;DHT22;6732;51.044;3.746;2022-08-01T09:48:59;23.10;98.20
13326;DHT22;6732;51.044;3.746;2022-08-01T09:51:33;23.20;98.30
13326;DHT22;6732;51.044;3.746;2022-08-01T09:54:01;23.20;98.20
13326;DHT22;6732;51.044;3.746;2022-08-01T09:56:39;23.20;97.90
13326;DHT22;6732;51.044;3.746;2022-08-01T09:59:06;23.20;98.00
13326;DHT22;6732;51.044;3.746;2022-08-01T10:01:43;23.30;97.90
13326;DHT22;6732;51.044;3.746;2022-08-01T10:04:19;23.30;97.90
13326;DHT22;6732;51.044;3.746;2022-08-01T10:06:49;23.30;98.10
13326;DHT22;6732;51.044;3.746;2022-08-01T10:09:32;23.30;98.30
13326;DHT22;6732;51.044;3.746;2022-08-01T10:12:00;23.30;98.00
13326;DHT22;6732;51.044;3.746;2022-08-01T10:14:28;23.30;97.70
13326;DHT22;6732;51.044;3.746;2022-08-01T10:16:57;23.40;97.80
13326;DHT22;6732;51.044;3.746;2022-08-01T10:19:25;23.40;97.80
13326;DHT22;6732;51.044;3.746;2022-08-01T10:21:52;23.40;97.80
13326;DHT22;6732;51.044;3.746;2022-08-01T10:24:21;23.40;97.60
13326;DHT22;6732;51.044;3.746;2022-08-01T10:26:48;23.40;97.70
13326;DHT22;6732;51.044;3.746;2022-08-01T10:29:16;23.50;97.50
13326;DHT22;6732;51.044;3.746;2022-08-01T10:31:45;23.50;97.40
13326;DHT22;6732;51.044;3.746;2022-08-01T10:34:12;23.50;97.30
13326;DHT22;6732;51.044;3.746;2022-08-01T10:36:42;23.50;97.30
13326;DHT22;6732;51.044;3.746;2022-08-01T10:39:10;23.60;97.00
13326;DHT22;6732;51.044;3.746;2022-08-01T10:41:38;23.60;97.00
13326;DHT22;6732;51.044;3.746;2022-08-01T10:44:07;23.60;96.70
13326;DHT22;6732;51.044;3.746;2022-08-01T10:46:38;23.60;96.40
13326;DHT22;6732;51.044;3.746;2022-08-01T10:49:11;23.60;96.30
13326;DHT22;6732;51.044;3.746;2022-08-01T10:51:39;23.60;96.30
13326;DHT22;6732;51.044;3.746;2022-08-01T10:54:07;23.60;95.90
13326;DHT22;6732;51.044;3.746;2022-08-01T10:56:44;23.60;95.80
13326;DHT22;6732;51.044;3.746;2022-08-01T10:59:10;23.70;96.10
13326;DHT22;6732;51.044;3.746;2022-08-01T11:01:39;23.70;96.40
13326;DHT22;6732;51.044;3.746;2022-08-01T11:04:09;23.70;96.70
13326;DHT22;6732;51.044;3.746;2022-08-01T11:09:23;23.80;96.50
13326;DHT22;6732;51.044;3.746;2022-08-01T11:12:03;23.80;96.40
13326;DHT22;6732;51.044;3.746;2022-08-01T11:14:33;23.80;96.30
13326;DHT22;6732;51.044;3.746;2022-08-01T11:17:41;23.90;96.60
13326;DHT22;6732;51.044;3.746;2022-08-01T11:20:18;23.90;96.50
13326;DHT22;6732;51.044;3.746;2022-08-01T11:30:42;24.00;96.00
13326;DHT22;6732;51.044;3.746;2022-08-01T11:33:09;24.00;95.70
13326;DHT22;6732;51.044;3.746;2022-08-01T11:35:36;24.00;95.50
13326;DHT22;6732;51.044;3.746;2022-08-01T11:38:38;24.00;95.80
13326;DHT22;6732;51.044;3.746;2022-08-01T11:41:28;24.10;95.70
13326;DHT22;6732;51.044;3.746;2022-08-01T11:44:18;24.00;95.10
13326;DHT22;6732;51.044;3.746;2022-08-01T11:52:28;24.10;94.50
13326;DHT22;6732;51.044;3.746;2022-08-01T11:55:05;24.10;94.40
13326;DHT22;6732;51.044;3.746;2022-08-01T11:57:33;24.20;94.50
13326;DHT22;6732;51.044;3.746;2022-08-01T12:00:12;24.20;94.40
13326;DHT22;6732;51.044;3.746;2022-08-01T12:02:38;24.20;94.10
13326;DHT22;6732;51.044;3.746;2022-08-01T12:05:09;24.20;93.90
13326;DHT22;6732;51.044;3.746;2022-08-01T12:07:40;24.20;94.00
13326;DHT22;6732;51.044;3.746;2022-08-01T12:10:14;24.30;93.90
13326;DHT22;6732;51.044;3.746;2022-08-01T12:12:49;24.30;93.60
13326;DHT22;6732;51.044;3.746;2022-08-01T12:15:16;24.30;93.60
13326;DHT22;6732;51.044;3.746;2022-08-01T12:17:45;24.30;93.30
13326;DHT22;6732;51.044;3.746;2022-08-01T12:20:14;24.30;93.20
13326;DHT22;6732;51.044;3.746;2022-08-01T12:22:40;24.40;93.30
13326;DHT22;6732;51.044;3.746;2022-08-01T12:25:15;24.40;93.40
13326;DHT22;6732;51.044;3.746;2022-08-01T12:27:42;24.40;93.40
13326;DHT22;6732;51.044;3.746;2022-08-01T12:30:11;24.40;93.20
13326;DHT22;6732;51.044;3.746;2022-08-01T12:32:39;24.40;93.00
13326;DHT22;6732;51.044;3.746;2022-08-01T12:35:17;24.50;93.20
13326;DHT22;6732;51.044;3.746;2022-08-01T12:37:45;24.50;92.70
13326;DHT22;6732;51.044;3.746;2022-08-01T12:40:17;24.60;92.90
13326;DHT22;6732;51.044;3.746;2022-08-01T12:42:45;24.60;92.30
13326;DHT22;6732;51.044;3.746;2022-08-01T12:48:01;24.70;92.00
13326;DHT22;6732;51.044;3.746;2022-08-01T12:50:31;24.70;92.10
13326;DHT22;6732;51.044;3.746;2022-08-01T12:52:58;24.70;92.80
13326;DHT22;6732;51.044;3.746;2022-08-01T12:55:25;24.70;92.60
13326;DHT22;6732;51.044;3.746;2022-08-01T12:58:08;24.80;92.50
13326;DHT22;6732;51.044;3.746;2022-08-01T13:00:35;24.80;92.20
13326;DHT22;6732;51.044;3.746;2022-08-01T13:03:04;24.80;92.10
13326;DHT22;6732;51.044;3.746;2022-08-01T13:08:13;24.80;92.30
13326;DHT22;6732;51.044;3.746;2022-08-01T13:10:40;24.80;92.40
13326;DHT22;6732;51.044;3.746;2022-08-01T13:13:07;24.80;91.60
13326;DHT22;6732;51.044;3.746;2022-08-01T13:15:35;24.80;91.40
13326;DHT22;6732;51.044;3.746;2022-08-01T13:20:48;24.80;91.30
13326;DHT22;6732;51.044;3.746;2022-08-01T13:23:18;24.80;91.10
13326;DHT22;6732;51.044;3.746;2022-08-01T13:25:54;24.80;90.90
13326;DHT22;6732;51.044;3.746;2022-08-01T13:28:23;24.80;91.10
13326;DHT22;6732;51.044;3.746;2022-08-01T13:31:06;24.80;90.80
13326;DHT22;6732;51.044;3.746;2022-08-01T13:33:48;24.80;90.80
13326;DHT22;6732;51.044;3.746;2022-08-01T13:36:14;24.80;91.10
13326;DHT22;6732;51.044;3.746;2022-08-01T13:38:41;24.80;91.40
13326;DHT22;6732;51.044;3.746;2022-08-01T13:41:26;24.80;91.50
13326;DHT22;6732;51.044;3.746;2022-08-01T13:43:53;24.80;91.10
13326;DHT22;6732;51.044;3.746;2022-08-01T13:46:20;24.80;90.40
13326;DHT22;6732;51.044;3.746;2022-08-01T13:48:46;24.80;90.20
13326;DHT22;6732;51.044;3.746;2022-08-01T13:51:12;24.80;90.40
13326;DHT22;6732;51.044;3.746;2022-08-01T13:53:38;24.80;90.10
13326;DHT22;6732;51.044;3.746;2022-08-01T13:56:04;24.80;89.30
13326;DHT22;6732;51.044;3.746;2022-08-01T13:58:30;24.70;88.90
13326;DHT22;6732;51.044;3.746;2022-08-01T14:00:56;24.70;88.00
13326;DHT22;6732;51.044;3.746;2022-08-01T14:03:22;24.70;87.00
13326;DHT22;6732;51.044;3.746;2022-08-01T14:05:48;24.70;87.40
13326;DHT22;6732;51.044;3.746;2022-08-01T14:08:15;24.70;87.10
13326;DHT22;6732;51.044;3.746;2022-08-01T14:10:41;24.70;87.70
13326;DHT22;6732;51.044;3.746;2022-08-01T14:13:07;24.70;88.00
13326;DHT22;6732;51.044;3.746;2022-08-01T14:15:32;24.70;87.90
13326;DHT22;6732;51.044;3.746;2022-08-01T14:17:58;24.80;87.60
13326;DHT22;6732;51.044;3.746;2022-08-01T14:20:25;24.80;86.80
13326;DHT22;6732;51.044;3.746;2022-08-01T14:22:51;24.80;87.00
13326;DHT22;6732;51.044;3.746;2022-08-01T14:25:18;24.80;86.90
13326;DHT22;6732;51.044;3.746;2022-08-01T14:27:44;24.70;86.70
13326;DHT22;6732;51.044;3.746;2022-08-01T14:30:11;24.70;86.30
13326;DHT22;6732;51.044;3.746;2022-08-01T14:32:37;24.70;87.20
13326;DHT22;6732;51.044;3.746;2022-08-01T14:35:05;24.80;88.20
13326;DHT22;6732;51.044;3.746;2022-08-01T14:37:32;24.80;88.20
13326;DHT22;6732;51.044;3.746;2022-08-01T14:39:59;24.80;88.40
13326;DHT22;6732;51.044;3.746;2022-08-01T14:42:29;24.80;88.20
13326;DHT22;6732;51.044;3.746;2022-08-01T14:44:55;24.80;88.00
13326;DHT22;6732;51.044;3.746;2022-08-01T14:47:21;24.80;88.50
13326;DHT22;6732;51.044;3.746;2022-08-01T14:49:47;24.80;88.60
13326;DHT22;6732;51.044;3.746;2022-08-01T14:52:13;24.80;87.50
13326;DHT22;6732;51.044;3.746;2022-08-01T14:54:39;24.80;87.30
13326;DHT22;6732;51.044;3.746;2022-08-01T14:57:05;24.80;87.20
13326;DHT22;6732;51.044;3.746;2022-08-01T14:59:31;24.80;86.50
13326;DHT22;6732;51.044;3.746;2022-08-01T15:01:57;24.80;85.80
13326;DHT22;6732;51.044;3.746;2022-08-01T15:04:23;24.80;85.80
13326;DHT22;6732;51.044;3.746;2022-08-01T15:06:49;24.80;86.50
13326;DHT22;6732;51.044;3.746;2022-08-01T15:09:15;24.80;88.00
13326;DHT22;6732;51.044;3.746;2022-08-01T15:11:41;24.80;87.60
13326;DHT22;6732;51.044;3.746;2022-08-01T15:14:07;24.80;86.80
13326;DHT22;6732;51.044;3.746;2022-08-01T15:16:52;24.80;86.70
13326;DHT22;6732;51.044;3.746;2022-08-01T15:19:18;24.80;87.00
13326;DHT22;6732;51.044;3.746;2022-08-01T15:21:43;24.80;86.60
13326;DHT22;6732;51.044;3.746;2022-08-01T15:24:09;24.80;86.40
13326;DHT22;6732;51.044;3.746;2022-08-01T15:26:35;24.80;87.10
13326;DHT22;6732;51.044;3.746;2022-08-01T15:29:01;24.80;85.90
13326;DHT22;6732;51.044;3.746;2022-08-01T15:31:27;24.80;85.70
13326;DHT22;6732;51.044;3.746;2022-08-01T15:33:53;24.80;86.00
13326;DHT22;6732;51.044;3.746;2022-08-01T15:36:20;24.80;85.70
13326;DHT22;6732;51.044;3.746;2022-08-01T15:38:46;24.80;85.60
13326;DHT22;6732;51.044;3.746;2022-08-01T15:41:11;24.80;85.90
13326;DHT22;6732;51.044;3.746;2022-08-01T15:43:37;24.80;86.40
13326;DHT22;6732;51.044;3.746;2022-08-01T15:46:04;24.80;86.40
13326;DHT22;6732;51.044;3.746;2022-08-01T15:48:30;24.80;85.50
13326;DHT22;6732;51.044;3.746;2022-08-01T15:50:55;24.80;85.40
13326;DHT22;6732;51.044;3.746;2022-08-01T15:53:21;24.80;85.50
13326;DHT22;6732;51.044;3.746;2022-08-01T15:55:47;24.80;85.80
13326;DHT22;6732;51.044;3.746;2022-08-01T15:58:13;24.80;85.40
13326;DHT22;6732;51.044;3.746;2022-08-01T16:00:39;24.80;85.20
13326;DHT22;6732;51.044;3.746;2022-08-01T16:03:06;24.80;85.50
13326;DHT22;6732;51.044;3.746;2022-08-01T16:05:32;24.80;85.90
13326;DHT22;6732;51.044;3.746;2022-08-01T16:07:59;24.80;86.30
13326;DHT22;6732;51.044;3.746;2022-08-01T16:10:24;24.80;85.00
13326;DHT22;6732;51.044;3.746;2022-08-01T16:12:50;24.80;85.10
13326;DHT22;6732;51.044;3.746;2022-08-01T16:15:16;24.80;84.50
13326;DHT22;6732;51.044;3.746;2022-08-01T16:17:42;24.80;84.60
13326;DHT22;6732;51.044;3.746;2022-08-01T16:20:08;24.80;84.90
13326;DHT22;6732;51.044;3.746;2022-08-01T16:22:34;24.80;85.30
13326;DHT22;6732;51.044;3.746;2022-08-01T16:25:02;24.80;85.90
13326;DHT22;6732;51.044;3.746;2022-08-01T16:27:29;24.80;85.70
13326;DHT22;6732;51.044;3.746;2022-08-01T16:29:56;24.70;84.70
13326;DHT22;6732;51.044;3.746;2022-08-01T16:32:22;24.70;85.10